sensor_id;sensor_type;location;lat;lon;timestamp;pressure;altitude;pressure_sealevel;temperature;humidity
54816;BME280;40715;55.752;37.884;2023-06-10T00:02:26;99431.72;;;30.06;23.03
54816;BME280;40715;55.752;37.884;2023-06-10T00:04:53;99427.28;;;30.05;22.87
54816;BME280;40715;55.752;37.884;2023-06-10T00:07:20;99433.88;;;30.03;22.97
54816;BME280;40715;55.752;37.884;2023-06-10T00:09:47;99433.59;;;30.06;22.92
54816;BME280;40715;55.752;37.884;2023-06-10T00:12:15;99430.16;;;30.04;22.96
54816;BME280;40715;55.752;37.884;2023-06-10T00:14:43;99432.03;;;30.03;22.84
54816;BME280;40715;55.752;37.884;2023-06-10T00:17:10;99440.38;;;30.02;23.11
54816;BME280;40715;55.752;37.884;2023-06-10T00:19:37;99442.38;;;30.00;23.16
54816;BME280;40715;55.752;37.884;2023-06-10T00:22:08;99442.38;;;30.00;22.71
54816;BME280;40715;55.752;37.884;2023-06-10T00:24:38;99448.84;;;29.99;22.89
54816;BME280;40715;55.752;37.884;2023-06-10T00:27:06;99452.72;;;29.96;22.91
54816;BME280;40715;55.752;37.884;2023-06-10T00:29:33;99451.88;;;29.95;22.95
54816;BME280;40715;55.752;37.884;2023-06-10T00:32:01;99455.44;;;29.96;22.95
54816;BME280;40715;55.752;37.884;2023-06-10T00:34:29;99448.47;;;29.93;22.89
54816;BME280;40715;55.752;37.884;2023-06-10T00:36:56;99448.47;;;29.93;22.69
54816;BME280;40715;55.752;37.884;2023-06-10T00:39:23;99447.78;;;29.91;22.90
54816;BME280;40715;55.752;37.884;2023-06-10T00:41:50;99456.09;;;29.90;22.94
54816;BME280;40715;55.752;37.884;2023-06-10T00:44:18;99453.38;;;29.90;23.01
54816;BME280;40715;55.752;37.884;2023-06-10T00:46:45;99458.13;;;29.88;22.81
54816;BME280;40715;55.752;37.884;2023-06-10T00:49:12;99469.00;;;29.88;22.73
54816;BME280;40715;55.752;37.884;2023-06-10T00:51:39;99461.84;;;29.87;22.71
54816;BME280;40715;55.752;37.884;2023-06-10T00:54:07;99458.47;;;29.85;23.02
54816;BME280;40715;55.752;37.884;2023-06-10T00:56:35;99462.31;;;29.82;22.88
54816;BME280;40715;55.752;37.884;2023-06-10T00:59:03;99461.47;;;29.82;23.08
54816;BME280;40715;55.752;37.884;2023-06-10T01:01:30;99466.03;;;29.81;22.74
54816;BME280;40715;55.752;37.884;2023-06-10T01:03:59;99467.19;;;29.78;22.87
54816;BME280;40715;55.752;37.884;2023-06-10T01:12:25;99477.72;;;29.73;22.84
54816;BME280;40715;55.752;37.884;2023-06-10T01:14:55;99474.94;;;29.65;23.00
54816;BME280;40715;55.752;37.884;2023-06-10T01:17:22;99491.41;;;29.64;22.91
54816;BME280;40715;55.752;37.884;2023-06-10T01:19:58;99482.09;;;29.66;23.07
54816;BME280;40715;55.752;37.884;2023-06-10T01:22:27;99485.97;;;29.64;23.09
54816;BME280;40715;55.752;37.884;2023-06-10T01:24:55;99488.13;;;29.60;23.06
54816;BME280;40715;55.752;37.884;2023-06-10T01:27:30;99495.59;;;29.58;23.19
54816;BME280;40715;55.752;37.884;2023-06-10T01:30:19;99503.09;;;29.64;23.08
54816;BME280;40715;55.752;37.884;2023-06-10T01:32:50;99512.06;;;29.56;23.03
54816;BME280;40715;55.752;37.884;2023-06-10T01:35:19;99514.22;;;29.53;22.90
54816;BME280;40715;55.752;37.884;2023-06-10T01:37:53;99517.97;;;29.52;22.84
54816;BME280;40715;55.752;37.884;2023-06-10T01:40:22;99517.09;;;29.51;22.95
54816;BME280;40715;55.752;37.884;2023-06-10T01:42:50;99509.44;;;29.47;22.98
54816;BME280;40715;55.752;37.884;2023-06-10T01:45:18;99519.97;;;29.50;23.17
54816;BME280;40715;55.752;37.884;2023-06-10T01:47:46;99517.25;;;29.50;22.96
54816;BME280;40715;55.752;37.884;2023-06-10T01:50:13;99516.41;;;29.49;22.98
54816;BME280;40715;55.752;37.884;2023-06-10T01:52:41;99534.53;;;29.49;23.09
54816;BME280;40715;55.752;37.884;2023-06-10T01:55:08;99529.13;;;29.49;22.89
54816;BME280;40715;55.752;37.884;2023-06-10T01:57:36;99531.16;;;29.47;22.82
54816;BME280;40715;55.752;37.884;2023-06-10T02:00:05;99532.88;;;29.48;22.95
54816;BME280;40715;55.752;37.884;2023-06-10T02:02:32;99538.97;;;29.50;22.95
54816;BME280;40715;55.752;37.884;2023-06-10T02:05:00;99534.72;;;29.47;22.66
54816;BME280;40715;55.752;37.884;2023-06-10T02:07:27;99534.72;;;29.47;23.02
54816;BME280;40715;55.752;37.884;2023-06-10T02:09:54;99545.41;;;29.49;22.67
54816;BME280;40715;55.752;37.884;2023-06-10T02:12:22;99545.41;;;29.49;22.78
54816;BME280;40715;55.752;37.884;2023-06-10T02:14:49;99543.72;;;29.48;22.83
54816;BME280;40715;55.752;37.884;2023-06-10T02:17:17;99543.56;;;29.49;22.68
54816;BME280;40715;55.752;37.884;2023-06-10T02:20:05;99546.13;;;29.51;22.84
54816;BME280;40715;55.752;37.884;2023-06-10T02:22:33;99549.31;;;29.46;23.09
54816;BME280;40715;55.752;37.884;2023-06-10T02:25:00;99554.41;;;29.49;22.70
54816;BME280;40715;55.752;37.884;2023-06-10T02:27:29;99558.97;;;29.49;22.90
54816;BME280;40715;55.752;37.884;2023-06-10T02:30:00;99563.41;;;29.50;22.82
54816;BME280;40715;55.752;37.884;2023-06-10T02:32:30;99560.69;;;29.50;22.78
54816;BME280;40715;55.752;37.884;2023-06-10T02:34:57;99562.25;;;29.52;22.85
54816;BME280;40715;55.752;37.884;2023-06-10T02:37:31;99564.94;;;29.52;22.75
54816;BME280;40715;55.752;37.884;2023-06-10T02:39:58;99570.38;;;29.52;22.76
54816;BME280;40715;55.752;37.884;2023-06-10T02:42:25;99567.50;;;29.54;22.72
54816;BME280;40715;55.752;37.884;2023-06-10T02:44:52;99570.78;;;29.57;22.88
54816;BME280;40715;55.752;37.884;2023-06-10T02:47:19;99571.44;;;29.59;22.95
54816;BME280;40715;55.752;37.884;2023-06-10T02:49:46;99566.84;;;29.60;22.76
54816;BME280;40715;55.752;37.884;2023-06-10T02:52:13;99573.00;;;29.62;22.79
54816;BME280;40715;55.752;37.884;2023-06-10T02:54:40;99578.28;;;29.64;22.71
54816;BME280;40715;55.752;37.884;2023-06-10T02:57:08;99577.09;;;29.66;22.91
54816;BME280;40715;55.752;37.884;2023-06-10T02:59:37;99568.81;;;29.68;23.03
54816;BME280;40715;55.752;37.884;2023-06-10T03:02:05;99580.34;;;29.70;23.05
54816;BME280;40715;55.752;37.884;2023-06-10T03:04:32;99582.72;;;29.73;22.88
54816;BME280;40715;55.752;37.884;2023-06-10T03:07:00;99582.44;;;29.76;22.98
54816;BME280;40715;55.752;37.884;2023-06-10T03:09:30;99582.28;;;29.77;22.98
54816;BME280;40715;55.752;37.884;2023-06-10T03:11:57;99576.69;;;29.79;22.84
54816;BME280;40715;55.752;37.884;2023-06-10T03:14:25;99580.25;;;29.79;22.97
54816;BME280;40715;55.752;37.884;2023-06-10T03:16:52;99586.38;;;29.82;23.03
54816;BME280;40715;55.752;37.884;2023-06-10T03:19:19;99579.63;;;29.86;23.04
54816;BME280;40715;55.752;37.884;2023-06-10T03:21:50;99586.59;;;29.88;22.99
54816;BME280;40715;55.752;37.884;2023-06-10T03:24:22;99580.72;;;29.93;23.15
54816;BME280;40715;55.752;37.884;2023-06-10T03:26:49;99580.72;;;29.93;22.91
54816;BME280;40715;55.752;37.884;2023-06-10T03:29:16;99586.81;;;29.95;23.28
54816;BME280;40715;55.752;37.884;2023-06-10T03:31:43;99577.28;;;29.91;22.86
54816;BME280;40715;55.752;37.884;2023-06-10T03:34:11;99584.78;;;29.97;23.19
54816;BME280;40715;55.752;37.884;2023-06-10T03:36:38;99589.22;;;29.98;22.83
54816;BME280;40715;55.752;37.884;2023-06-10T03:39:10;99589.03;;;30.00;23.27
54816;BME280;40715;55.752;37.884;2023-06-10T03:41:37;99593.16;;;30.04;23.14
54816;BME280;40715;55.752;37.884;2023-06-10T03:44:04;99596.56;;;30.06;23.07
54816;BME280;40715;55.752;37.884;2023-06-10T03:46:31;99593.53;;;30.09;23.08
54816;BME280;40715;55.752;37.884;2023-06-10T03:48:58;99600.50;;;30.11;23.07
54816;BME280;40715;55.752;37.884;2023-06-10T03:51:27;99598.47;;;30.13;23.23
54816;BME280;40715;55.752;37.884;2023-06-10T03:53:54;99596.31;;;30.17;23.15
54816;BME280;40715;55.752;37.884;2023-06-10T03:56:21;99594.09;;;30.21;23.12
54816;BME280;40715;55.752;37.884;2023-06-10T03:58:48;99584.94;;;30.22;23.22
54816;BME280;40715;55.752;37.884;2023-06-10T04:01:16;99595.84;;;30.30;23.28
54816;BME280;40715;55.752;37.884;2023-06-10T04:03:44;99602.63;;;30.34;23.23
54816;BME280;40715;55.752;37.884;2023-06-10T04:06:11;99590.44;;;30.38;23.27
54816;BME280;40715;55.752;37.884;2023-06-10T04:08:39;99598.81;;;30.45;23.05
54816;BME280;40715;55.752;37.884;2023-06-10T04:11:06;99603.44;;;30.53;23.33
54816;BME280;40715;55.752;37.884;2023-06-10T04:13:33;99607.22;;;30.60;23.14
54816;BME280;40715;55.752;37.884;2023-06-10T04:16:00;99608.25;;;30.67;23.53
54816;BME280;40715;55.752;37.884;2023-06-10T04:18:27;99608.09;;;30.77;23.86
54816;BME280;40715;55.752;37.884;2023-06-10T04:20:55;99608.66;;;30.89;23.64
54816;BME280;40715;55.752;37.884;2023-06-10T04:23:22;99602.91;;;31.00;23.39
54816;BME280;40715;55.752;37.884;2023-06-10T04:25:49;99613.50;;;31.11;23.49
54816;BME280;40715;55.752;37.884;2023-06-10T04:28:16;99614.03;;;31.23;23.64
54816;BME280;40715;55.752;37.884;2023-06-10T04:30:43;99606.53;;;31.33;23.51
54816;BME280;40715;55.752;37.884;2023-06-10T04:33:11;99618.09;;;31.44;23.68
54816;BME280;40715;55.752;37.884;2023-06-10T04:35:38;99617.94;;;31.54;23.31
54816;BME280;40715;55.752;37.884;2023-06-10T04:38:05;99622.06;;;31.66;23.77
54816;BME280;40715;55.752;37.884;2023-06-10T04:40:33;99618.28;;;31.75;23.78
54816;BME280;40715;55.752;37.884;2023-06-10T04:43:00;99618.97;;;31.86;23.46
54816;BME280;40715;55.752;37.884;2023-06-10T04:45:27;99622.38;;;31.96;23.63
54816;BME280;40715;55.752;37.884;2023-06-10T04:47:55;99627.81;;;32.04;23.75
54816;BME280;40715;55.752;37.884;2023-06-10T04:50:22;99631.38;;;32.13;23.42
54816;BME280;40715;55.752;37.884;2023-06-10T04:52:49;99632.03;;;32.23;23.61
54816;BME280;40715;55.752;37.884;2023-06-10T04:55:16;99632.03;;;32.31;23.22
54816;BME280;40715;55.752;37.884;2023-06-10T04:57:43;99642.72;;;32.41;23.14
54816;BME280;40715;55.752;37.884;2023-06-10T05:00:11;99642.69;;;32.49;23.15
54816;BME280;40715;55.752;37.884;2023-06-10T05:02:38;99642.47;;;32.59;23.00
54816;BME280;40715;55.752;37.884;2023-06-10T05:05:05;99647.91;;;32.67;23.39
54816;BME280;40715;55.752;37.884;2023-06-10T05:07:33;99634.25;;;32.76;22.90
54816;BME280;40715;55.752;37.884;2023-06-10T05:10:03;99641.72;;;32.82;23.03
54816;BME280;40715;55.752;37.884;2023-06-10T05:12:30;99645.06;;;32.92;22.75
54816;BME280;40715;55.752;37.884;2023-06-10T05:14:57;99638.41;;;32.95;22.88
54816;BME280;40715;55.752;37.884;2023-06-10T05:17:24;99641.78;;;33.05;22.41
54816;BME280;40715;55.752;37.884;2023-06-10T05:19:52;99641.41;;;33.08;22.72
54816;BME280;40715;55.752;37.884;2023-06-10T05:22:19;99646.78;;;33.16;22.21
54816;BME280;40715;55.752;37.884;2023-06-10T05:24:46;99649.00;;;33.21;22.21
54816;BME280;40715;55.752;37.884;2023-06-10T05:27:13;99650.19;;;33.27;22.02
54816;BME280;40715;55.752;37.884;2023-06-10T05:29:41;99647.56;;;33.33;22.43
54816;BME280;40715;55.752;37.884;2023-06-10T05:32:08;99651.47;;;33.39;22.12
54816;BME280;40715;55.752;37.884;2023-06-10T05:34:35;99645.28;;;33.45;22.16
54816;BME280;40715;55.752;37.884;2023-06-10T05:37:02;99657.38;;;33.51;22.07
54816;BME280;40715;55.752;37.884;2023-06-10T05:39:30;99650.13;;;33.58;22.14
54816;BME280;40715;55.752;37.884;2023-06-10T05:41:57;99657.97;;;33.61;21.92
54816;BME280;40715;55.752;37.884;2023-06-10T05:44:26;99661.47;;;33.70;21.60
54816;BME280;40715;55.752;37.884;2023-06-10T05:46:53;99661.97;;;33.74;21.79
54816;BME280;40715;55.752;37.884;2023-06-10T05:49:20;99670.78;;;33.84;21.56
54816;BME280;40715;55.752;37.884;2023-06-10T05:51:47;99667.41;;;33.97;21.38
54816;BME280;40715;55.752;37.884;2023-06-10T05:54:14;99661.31;;;34.10;21.29
54816;BME280;40715;55.752;37.884;2023-06-10T05:56:41;99664.41;;;34.21;21.29
54816;BME280;40715;55.752;37.884;2023-06-10T05:59:08;99669.25;;;34.34;21.16
54816;BME280;40715;55.752;37.884;2023-06-10T06:01:35;99680.97;;;34.43;21.28
54816;BME280;40715;55.752;37.884;2023-06-10T06:04:02;99678.81;;;34.53;21.08
54816;BME280;40715;55.752;37.884;2023-06-10T06:06:29;99672.88;;;34.65;21.03
54816;BME280;40715;55.752;37.884;2023-06-10T06:08:56;99668.59;;;34.77;20.88
54816;BME280;40715;55.752;37.884;2023-06-10T06:11:23;99674.63;;;34.87;20.95
54816;BME280;40715;55.752;37.884;2023-06-10T06:13:52;99667.00;;;34.98;20.76
54816;BME280;40715;55.752;37.884;2023-06-10T06:16:19;99667.53;;;35.08;20.67
54816;BME280;40715;55.752;37.884;2023-06-10T06:18:47;99685.50;;;35.17;20.51
54816;BME280;40715;55.752;37.884;2023-06-10T06:21:14;99685.00;;;35.29;20.42
54816;BME280;40715;55.752;37.884;2023-06-10T06:23:41;99686.16;;;35.34;20.55
54816;BME280;40715;55.752;37.884;2023-06-10T06:26:08;99677.75;;;35.36;20.39
54816;BME280;40715;55.752;37.884;2023-06-10T06:28:35;99683.41;;;35.34;20.15
54816;BME280;40715;55.752;37.884;2023-06-10T06:31:02;99680.47;;;35.36;20.32
54816;BME280;40715;55.752;37.884;2023-06-10T06:33:29;99667.56;;;35.30;20.20
54816;BME280;40715;55.752;37.884;2023-06-10T06:35:56;99684.84;;;35.30;19.95
54816;BME280;40715;55.752;37.884;2023-06-10T06:38:23;99683.41;;;35.34;20.13
54816;BME280;40715;55.752;37.884;2023-06-10T06:40:50;99681.16;;;35.38;20.06
54816;BME280;40715;55.752;37.884;2023-06-10T06:43:17;99683.97;;;35.45;20.18
54816;BME280;40715;55.752;37.884;2023-06-10T06:45:45;99684.59;;;35.47;19.51
54816;BME280;40715;55.752;37.884;2023-06-10T06:48:12;99693.47;;;35.49;19.90
54816;BME280;40715;55.752;37.884;2023-06-10T06:50:39;99693.75;;;35.54;19.87
54816;BME280;40715;55.752;37.884;2023-06-10T06:53:08;99701.56;;;35.57;20.00
54816;BME280;40715;55.752;37.884;2023-06-10T06:55:35;99701.97;;;35.54;19.91
54816;BME280;40715;55.752;37.884;2023-06-10T06:58:02;99703.59;;;35.48;19.45
54816;BME280;40715;55.752;37.884;2023-06-10T07:00:31;99708.78;;;35.43;19.56
54816;BME280;40715;55.752;37.884;2023-06-10T07:02:58;99704.94;;;35.37;19.38
54816;BME280;40715;55.752;37.884;2023-06-10T07:05:26;99705.72;;;35.31;19.36
54816;BME280;40715;55.752;37.884;2023-06-10T07:07:54;99714.13;;;35.30;19.48
54816;BME280;40715;55.752;37.884;2023-06-10T07:10:24;99707.63;;;35.31;19.83
54816;BME280;40715;55.752;37.884;2023-06-10T07:12:52;99706.19;;;35.35;19.59
54816;BME280;40715;55.752;37.884;2023-06-10T07:15:19;99700.13;;;35.39;19.52
54816;BME280;40715;55.752;37.884;2023-06-10T07:17:47;99699.72;;;35.42;19.53
54816;BME280;40715;55.752;37.884;2023-06-10T07:20:14;99710.56;;;35.51;19.61
54816;BME280;40715;55.752;37.884;2023-06-10T07:22:43;99704.50;;;35.55;19.49
54816;BME280;40715;55.752;37.884;2023-06-10T07:25:10;99709.84;;;35.64;19.63
54816;BME280;40715;55.752;37.884;2023-06-10T07:27:37;99713.00;;;35.60;19.29
54816;BME280;40715;55.752;37.884;2023-06-10T07:30:05;99722.16;;;35.53;19.46
54816;BME280;40715;55.752;37.884;2023-06-10T07:32:35;99715.84;;;35.52;19.47
54816;BME280;40715;55.752;37.884;2023-06-10T07:35:02;99719.00;;;35.49;19.33
54816;BME280;40715;55.752;37.884;2023-06-10T07:37:30;99722.69;;;35.41;19.37
54816;BME280;40715;55.752;37.884;2023-06-10T07:39:57;99714.22;;;35.36;19.08
54816;BME280;40715;55.752;37.884;2023-06-10T07:42:24;99725.91;;;35.30;19.27
54816;BME280;40715;55.752;37.884;2023-06-10T07:44:51;99729.22;;;35.25;18.97
54816;BME280;40715;55.752;37.884;2023-06-10T07:47:19;99735.72;;;35.24;19.07
54816;BME280;40715;55.752;37.884;2023-06-10T07:49:46;99736.78;;;35.23;18.95
54816;BME280;40715;55.752;37.884;2023-06-10T07:52:13;99731.97;;;35.25;18.74
54816;BME280;40715;55.752;37.884;2023-06-10T07:54:40;99725.91;;;35.30;18.51
54816;BME280;40715;55.752;37.884;2023-06-10T07:57:07;99732.72;;;35.34;18.23
54816;BME280;40715;55.752;37.884;2023-06-10T07:59:35;99724.31;;;35.36;18.06
54816;BME280;40715;55.752;37.884;2023-06-10T08:02:02;99729.78;;;35.36;17.93
54816;BME280;40715;55.752;37.884;2023-06-10T08:04:29;99726.59;;;35.32;17.51
54816;BME280;40715;55.752;37.884;2023-06-10T08:06:57;99740.28;;;35.17;17.43
54816;BME280;40715;55.752;37.884;2023-06-10T08:09:24;99734.34;;;34.99;17.39
54816;BME280;40715;55.752;37.884;2023-06-10T08:11:51;99740.31;;;34.87;17.28
54816;BME280;40715;55.752;37.884;2023-06-10T08:14:19;99734.00;;;34.87;17.30
54816;BME280;40715;55.752;37.884;2023-06-10T08:16:46;99739.47;;;34.87;17.12
54816;BME280;40715;55.752;37.884;2023-06-10T08:19:13;99737.31;;;34.82;17.31
54816;BME280;40715;55.752;37.884;2023-06-10T08:21:40;99748.91;;;34.84;16.87
54816;BME280;40715;55.752;37.884;2023-06-10T08:24:07;99747.69;;;34.87;16.89
54816;BME280;40715;55.752;37.884;2023-06-10T08:26:34;99743.91;;;34.88;16.78
54816;BME280;40715;55.752;37.884;2023-06-10T08:29:01;99746.84;;;34.86;16.69
54816;BME280;40715;55.752;37.884;2023-06-10T08:31:28;99746.47;;;34.89;16.74
54816;BME280;40715;55.752;37.884;2023-06-10T08:33:56;99749.19;;;34.89;16.43
54816;BME280;40715;55.752;37.884;2023-06-10T08:36:23;99748.16;;;34.90;16.30
54816;BME280;40715;55.752;37.884;2023-06-10T08:38:50;99749.00;;;34.91;16.27
54816;BME280;40715;55.752;37.884;2023-06-10T08:41:17;99761.19;;;34.88;16.28
54816;BME280;40715;55.752;37.884;2023-06-10T08:46:36;99756.34;;;34.75;15.88
54816;BME280;40715;55.752;37.884;2023-06-10T08:49:06;99755.22;;;34.70;15.90
54816;BME280;40715;55.752;37.884;2023-06-10T08:51:37;99758.72;;;34.64;15.79
54816;BME280;40715;55.752;37.884;2023-06-10T08:54:18;99751.72;;;34.61;15.78
54816;BME280;40715;55.752;37.884;2023-06-10T08:56:49;99768.13;;;34.46;15.69
54816;BME280;40715;55.752;37.884;2023-06-10T08:59:19;99767.06;;;34.32;15.47
54816;BME280;40715;55.752;37.884;2023-06-10T09:01:48;99753.88;;;34.13;15.80
54816;BME280;40715;55.752;37.884;2023-06-10T09:04:16;99778.06;;;34.01;16.00
54816;BME280;40715;55.752;37.884;2023-06-10T09:06:45;99765.31;;;33.93;15.58
54816;BME280;40715;55.752;37.884;2023-06-10T09:09:14;99758.69;;;33.87;15.66
54816;BME280;40715;55.752;37.884;2023-06-10T09:11:42;99770.34;;;33.81;15.63
54816;BME280;40715;55.752;37.884;2023-06-10T09:14:09;99762.06;;;33.66;15.36
54816;BME280;40715;55.752;37.884;2023-06-10T09:16:39;99770.00;;;33.53;15.29
54816;BME280;40715;55.752;37.884;2023-06-10T09:19:07;99770.44;;;33.33;15.60
54816;BME280;40715;55.752;37.884;2023-06-10T09:21:37;99766.75;;;33.18;15.57
54816;BME280;40715;55.752;37.884;2023-06-10T09:24:05;99762.38;;;33.00;15.52
54816;BME280;40715;55.752;37.884;2023-06-10T09:26:32;99773.50;;;32.91;15.45
54816;BME280;40715;55.752;37.884;2023-06-10T09:29:03;99779.19;;;32.73;15.59
54816;BME280;40715;55.752;37.884;2023-06-10T09:31:35;99774.91;;;32.62;15.38
54816;BME280;40715;55.752;37.884;2023-06-10T09:34:10;99770.81;;;32.58;15.91
54816;BME280;40715;55.752;37.884;2023-06-10T09:36:38;99768.47;;;32.46;15.37
54816;BME280;40715;55.752;37.884;2023-06-10T09:39:13;99775.81;;;32.46;15.70
54816;BME280;40715;55.752;37.884;2023-06-10T09:41:45;99766.09;;;32.35;15.31
54816;BME280;40715;55.752;37.884;2023-06-10T09:44:16;99764.41;;;32.26;15.32
54816;BME280;40715;55.752;37.884;2023-06-10T09:46:49;99759.81;;;32.18;15.54
54816;BME280;40715;55.752;37.884;2023-06-10T09:49:17;99769.19;;;32.15;15.76
54816;BME280;40715;55.752;37.884;2023-06-10T09:51:52;99779.03;;;32.08;15.35
54816;BME280;40715;55.752;37.884;2023-06-10T09:54:20;99774.59;;;31.99;15.49
54816;BME280;40715;55.752;37.884;2023-06-10T09:56:49;99785.31;;;31.92;15.84
54816;BME280;40715;55.752;37.884;2023-06-10T09:59:28;99785.13;;;31.94;15.83
54816;BME280;40715;55.752;37.884;2023-06-10T10:01:56;99782.44;;;31.86;15.88
54816;BME280;40715;55.752;37.884;2023-06-10T10:04:24;99783.78;;;31.81;15.86
54816;BME280;40715;55.752;37.884;2023-06-10T10:06:52;99781.06;;;31.81;16.07
54816;BME280;40715;55.752;37.884;2023-06-10T10:09:19;99781.41;;;31.78;15.95
54816;BME280;40715;55.752;37.884;2023-06-10T10:11:46;99782.59;;;31.76;16.02
54816;BME280;40715;55.752;37.884;2023-06-10T10:14:16;99787.50;;;31.72;15.70
54816;BME280;40715;55.752;37.884;2023-06-10T10:16:44;99785.66;;;31.73;16.25
54816;BME280;40715;55.752;37.884;2023-06-10T10:19:20;99793.13;;;31.79;16.04
54816;BME280;40715;55.752;37.884;2023-06-10T10:21:55;99797.91;;;31.77;16.30
54816;BME280;40715;55.752;37.884;2023-06-10T10:24:49;99786.16;;;31.84;16.33
54816;BME280;40715;55.752;37.884;2023-06-10T10:27:20;99792.44;;;31.69;16.50
54816;BME280;40715;55.752;37.884;2023-06-10T10:29:51;99797.91;;;31.69;16.04
54816;BME280;40715;55.752;37.884;2023-06-10T10:32:29;99788.00;;;31.67;16.28
54816;BME280;40715;55.752;37.884;2023-06-10T10:35:08;99781.56;;;31.69;16.44
54816;BME280;40715;55.752;37.884;2023-06-10T10:37:36;99775.06;;;31.70;16.25
54816;BME280;40715;55.752;37.884;2023-06-10T10:40:04;99773.72;;;31.65;16.65
54816;BME280;40715;55.752;37.884;2023-06-10T10:42:32;99776.44;;;31.65;16.28
54816;BME280;40715;55.752;37.884;2023-06-10T10:45:00;99772.84;;;31.65;16.22
54816;BME280;40715;55.752;37.884;2023-06-10T10:47:30;99772.34;;;31.61;16.63
54816;BME280;40715;55.752;37.884;2023-06-10T10:49:58;99777.25;;;31.58;16.23
54816;BME280;40715;55.752;37.884;2023-06-10T10:52:48;99779.47;;;31.62;16.47
54816;BME280;40715;55.752;37.884;2023-06-10T10:55:17;99781.63;;;31.42;16.43
54816;BME280;40715;55.752;37.884;2023-06-10T10:57:53;99784.00;;;31.37;16.26
54816;BME280;40715;55.752;37.884;2023-06-10T11:00:43;99783.63;;;31.32;16.65
54816;BME280;40715;55.752;37.884;2023-06-10T11:03:16;99783.09;;;31.20;16.08
54816;BME280;40715;55.752;37.884;2023-06-10T11:05:48;99782.50;;;31.08;16.05
54816;BME280;40715;55.752;37.884;2023-06-10T11:10:55;99782.75;;;30.89;16.15
54816;BME280;40715;55.752;37.884;2023-06-10T11:13:23;99785.25;;;30.82;16.58
54816;BME280;40715;55.752;37.884;2023-06-10T11:15:50;99781.47;;;30.75;16.36
54816;BME280;40715;55.752;37.884;2023-06-10T11:18:22;99774.13;;;30.67;16.13
54816;BME280;40715;55.752;37.884;2023-06-10T11:31:24;99785.28;;;30.38;16.02
54816;BME280;40715;55.752;37.884;2023-06-10T11:36:23;99786.91;;;30.30;16.48
54816;BME280;40715;55.752;37.884;2023-06-10T11:38:56;99791.53;;;30.30;15.84
54816;BME280;40715;55.752;37.884;2023-06-10T11:41:24;99778.38;;;30.25;16.07
54816;BME280;40715;55.752;37.884;2023-06-10T11:43:55;99786.50;;;30.17;15.96
54816;BME280;40715;55.752;37.884;2023-06-10T11:46:25;99785.25;;;30.11;16.14
54816;BME280;40715;55.752;37.884;2023-06-10T11:48:59;99773.16;;;30.06;15.98
54816;BME280;40715;55.752;37.884;2023-06-10T11:51:29;99767.16;;;30.02;16.03
54816;BME280;40715;55.752;37.884;2023-06-10T11:53:57;99770.34;;;29.98;15.97
54816;BME280;40715;55.752;37.884;2023-06-10T11:56:27;99778.97;;;29.93;16.24
54816;BME280;40715;55.752;37.884;2023-06-10T11:58:57;99777.44;;;29.90;16.02
54816;BME280;40715;55.752;37.884;2023-06-10T12:01:26;99774.75;;;29.81;15.99
54816;BME280;40715;55.752;37.884;2023-06-10T12:06:45;99790.88;;;29.82;15.97
54816;BME280;40715;55.752;37.884;2023-06-10T12:09:24;99783.53;;;29.74;16.22
54816;BME280;40715;55.752;37.884;2023-06-10T12:12:04;99796.78;;;29.77;16.23
54816;BME280;40715;55.752;37.884;2023-06-10T12:15:08;99793.41;;;29.93;16.02
54816;BME280;40715;55.752;37.884;2023-06-10T12:17:37;99789.72;;;29.67;15.83
54816;BME280;40715;55.752;37.884;2023-06-10T12:20:12;99794.88;;;29.60;16.13
54816;BME280;40715;55.752;37.884;2023-06-10T12:22:50;99791.91;;;29.63;16.34
54816;BME280;40715;55.752;37.884;2023-06-10T12:25:27;99795.84;;;29.69;16.39
54816;BME280;40715;55.752;37.884;2023-06-10T12:27:58;99800.41;;;29.68;16.08
54816;BME280;40715;55.752;37.884;2023-06-10T12:30:26;99799.41;;;29.69;16.16
54816;BME280;40715;55.752;37.884;2023-06-10T12:32:55;99785.69;;;29.71;16.23
54816;BME280;40715;55.752;37.884;2023-06-10T12:35:26;99787.09;;;29.75;16.28
54816;BME280;40715;55.752;37.884;2023-06-10T12:38:00;99783.59;;;29.83;16.24
54816;BME280;40715;55.752;37.884;2023-06-10T12:40:33;99781.47;;;29.86;16.46
54816;BME280;40715;55.752;37.884;2023-06-10T12:43:02;99789.28;;;29.89;16.25
54816;BME280;40715;55.752;37.884;2023-06-10T12:48:21;99784.53;;;29.91;16.50
54816;BME280;40715;55.752;37.884;2023-06-10T12:50:56;99788.97;;;29.92;16.37
54816;BME280;40715;55.752;37.884;2023-06-10T12:53:24;99791.69;;;29.92;16.66
54816;BME280;40715;55.752;37.884;2023-06-10T12:55:53;99783.38;;;29.94;16.61
54816;BME280;40715;55.752;37.884;2023-06-10T12:58:21;99786.50;;;29.99;16.75
54816;BME280;40715;55.752;37.884;2023-06-10T13:00:50;99782.47;;;30.03;16.78
54816;BME280;40715;55.752;37.884;2023-06-10T13:03:20;99782.53;;;30.11;16.95
54816;BME280;40715;55.752;37.884;2023-06-10T13:05:47;99792.94;;;30.16;16.95
54816;BME280;40715;55.752;37.884;2023-06-10T13:08:15;99783.22;;;30.13;16.59
54816;BME280;40715;55.752;37.884;2023-06-10T13:10:42;99801.41;;;30.13;16.79
54816;BME280;40715;55.752;37.884;2023-06-10T13:13:09;99801.41;;;30.13;16.58
54816;BME280;40715;55.752;37.884;2023-06-10T13:15:37;99811.53;;;30.11;16.91
54816;BME280;40715;55.752;37.884;2023-06-10T13:18:08;99807.28;;;30.08;16.78
54816;BME280;40715;55.752;37.884;2023-06-10T13:20:35;99801.16;;;30.06;16.80
54816;BME280;40715;55.752;37.884;2023-06-10T13:23:05;99813.19;;;30.04;16.81
54816;BME280;40715;55.752;37.884;2023-06-10T13:25:32;99807.06;;;30.02;16.88
54816;BME280;40715;55.752;37.884;2023-06-10T13:28:00;99808.38;;;29.98;17.02
54816;BME280;40715;55.752;37.884;2023-06-10T13:30:28;99808.22;;;29.99;17.04